createdAt,value
2022-10-20T00:01:16.635Z,3.20
2022-10-20T00:03:44.399Z,3.20
2022-10-20T00:06:27.020Z,3.20
2022-10-20T00:08:55.615Z,3.20
2022-10-20T00:11:24.241Z,3.20
2022-10-20T00:13:53.320Z,3.30
2022-10-20T00:16:21.554Z,3.30
2022-10-20T00:18:48.604Z,3.30
2022-10-20T00:21:26.794Z,3.30
2022-10-20T00:23:54.595Z,3.30
2022-10-20T00:26:26.494Z,3.40
2022-10-20T00:28:54.174Z,3.30
2022-10-20T00:31:22.660Z,3.30
2022-10-20T00:33:49.938Z,3.30
2022-10-20T00:36:20.070Z,3.30
2022-10-20T00:38:47.703Z,3.20
2022-10-20T00:41:16.992Z,3.20
2022-10-20T00:44:23.648Z,3.20
2022-10-20T00:46:50.723Z,3.20
2022-10-20T00:49:26.534Z,3.20
2022-10-20T00:51:55.079Z,3.20
2022-10-20T00:54:26.038Z,3.20
2022-10-20T00:56:56.144Z,3.20
2022-10-20T00:59:30.058Z,3.20
2022-10-20T01:01:58.302Z,3.20
2022-10-20T01:04:27.689Z,3.30
2022-10-20T01:06:55.023Z,3.30
2022-10-20T01:09:22.425Z,3.30
2022-10-20T01:12:20.091Z,3.30
2022-10-20T01:14:56.358Z,3.20
2022-10-20T01:17:38.678Z,3.20
2022-10-20T01:20:11.785Z,3.20
2022-10-20T01:23:03.087Z,3.20
2022-10-20T01:25:39.145Z,3.20
2022-10-20T01:28:14.996Z,3.20
2022-10-20T01:30:47.066Z,3.20
2022-10-20T01:33:21.407Z,3.20
2022-10-20T01:35:54.451Z,3.20
2022-10-20T01:38:24.483Z,3.20
2022-10-20T01:40:55.470Z,3.20
2022-10-20T01:43:25.418Z,3.20
2022-10-20T01:45:54.736Z,3.30
2022-10-20T01:48:25.851Z,3.30
2022-10-20T01:50:53.432Z,3.30
2022-10-20T01:53:21.203Z,3.30
2022-10-20T01:55:51.984Z,3.30
2022-10-20T01:58:43.261Z,3.30
2022-10-20T02:01:37.401Z,3.40
2022-10-20T02:04:07.142Z,3.30
2022-10-20T02:06:56.358Z,3.30
2022-10-20T02:09:39.717Z,3.20
2022-10-20T02:12:21.979Z,3.20
2022-10-20T02:14:50.102Z,3.10
2022-10-20T02:17:20.237Z,3.10
2022-10-20T02:19:50.457Z,3.00
2022-10-20T02:22:20.099Z,3.00
2022-10-20T02:24:48.049Z,2.90
2022-10-20T02:27:20.324Z,2.90
2022-10-20T02:29:55.181Z,2.90
2022-10-20T02:32:24.512Z,2.90
2022-10-20T02:34:51.611Z,2.90
2022-10-20T02:37:18.906Z,2.90
2022-10-20T02:39:45.957Z,2.90
2022-10-20T02:42:13.076Z,2.90
2022-10-20T02:44:40.260Z,2.80
2022-10-20T02:47:07.319Z,2.80
2022-10-20T02:49:34.525Z,2.90
2022-10-20T02:52:01.583Z,2.90
2022-10-20T02:54:28.935Z,2.90
2022-10-20T02:56:56.432Z,2.90
2022-10-20T02:59:23.509Z,3.00
2022-10-20T03:01:52.465Z,3.00
2022-10-20T03:04:19.696Z,3.00
2022-10-20T03:06:46.773Z,3.10
2022-10-20T03:09:14.382Z,3.00
2022-10-20T03:11:41.412Z,3.00
2022-10-20T03:14:08.476Z,3.00
2022-10-20T03:16:35.907Z,3.00
2022-10-20T03:19:05.317Z,3.00
2022-10-20T03:21:34.435Z,3.00
2022-10-20T03:24:01.610Z,3.00
2022-10-20T03:26:28.749Z,3.00
2022-10-20T03:28:56.085Z,3.00
2022-10-20T03:31:23.150Z,3.00
2022-10-20T03:33:50.293Z,3.00
2022-10-20T03:36:17.640Z,3.00
2022-10-20T03:38:44.683Z,3.00
2022-10-20T03:41:11.864Z,3.00
2022-10-20T03:43:40.581Z,3.10
2022-10-20T03:46:09.770Z,3.10
2022-10-20T03:48:37.924Z,3.20
2022-10-20T03:51:06.231Z,3.20
2022-10-20T03:53:33.579Z,3.30
2022-10-20T03:56:05.195Z,3.30
2022-10-20T03:58:32.302Z,3.40
2022-10-20T04:00:59.411Z,3.40
2022-10-20T04:03:26.540Z,3.50
2022-10-20T04:05:53.611Z,3.70
2022-10-20T04:08:20.742Z,3.70
2022-10-20T04:10:47.967Z,3.80
2022-10-20T04:13:15.049Z,3.80
2022-10-20T04:15:42.078Z,3.70
2022-10-20T04:18:09.586Z,3.70
2022-10-20T04:20:38.296Z,3.70
2022-10-20T04:23:07.658Z,3.80
2022-10-20T04:25:34.733Z,3.80
2022-10-20T04:28:01.806Z,3.90
2022-10-20T04:30:29.000Z,3.90
2022-10-20T04:32:56.052Z,3.90
2022-10-20T04:35:23.059Z,3.80
2022-10-20T04:37:50.314Z,3.80
2022-10-20T04:40:17.490Z,3.80
2022-10-20T04:42:44.625Z,3.70
2022-10-20T04:45:11.781Z,3.70
2022-10-20T04:47:39.098Z,3.70
2022-10-20T04:50:06.916Z,3.70
2022-10-20T04:52:34.053Z,3.70
2022-10-20T04:55:01.184Z,3.70
2022-10-20T04:57:28.446Z,3.70
2022-10-20T04:59:55.567Z,3.70
2022-10-20T05:02:22.833Z,3.70
2022-10-20T05:04:49.873Z,3.70
2022-10-20T05:07:16.946Z,3.70
2022-10-20T05:09:44.026Z,3.70
2022-10-20T05:12:11.111Z,3.60
2022-10-20T05:14:38.297Z,3.60
2022-10-20T05:17:07.882Z,3.50
2022-10-20T05:19:37.445Z,3.50
2022-10-20T05:22:04.473Z,3.50
2022-10-20T05:24:31.580Z,3.60
2022-10-20T05:26:58.865Z,3.70
2022-10-20T05:29:25.885Z,3.70
2022-10-20T05:31:52.887Z,3.70
2022-10-20T05:34:20.262Z,3.70
2022-10-20T05:36:47.279Z,3.70
2022-10-20T05:39:14.330Z,3.60
2022-10-20T05:41:41.888Z,3.60
2022-10-20T05:44:09.231Z,2.10
2022-10-20T05:46:41.491Z,3.80
2022-10-20T05:49:16.963Z,4.00
2022-10-20T05:51:45.659Z,4.10
2022-10-20T05:54:14.127Z,4.30
2022-10-20T05:56:41.468Z,4.30
2022-10-20T05:59:09.774Z,4.30
2022-10-20T06:01:48.266Z,4.10
2022-10-20T06:04:23.561Z,3.90
2022-10-20T06:06:52.159Z,3.70
2022-10-20T06:09:19.525Z,3.60
2022-10-20T06:11:46.782Z,3.70
2022-10-20T06:14:14.318Z,3.70
2022-10-20T06:16:41.536Z,3.70
2022-10-20T06:19:08.787Z,3.90
2022-10-20T06:21:38.154Z,4.00
2022-10-20T06:24:06.768Z,4.20
2022-10-20T06:26:38.504Z,4.30
2022-10-20T06:29:08.142Z,4.40
2022-10-20T06:31:40.763Z,4.50
2022-10-20T06:34:10.197Z,4.70
2022-10-20T06:36:39.476Z,4.70
2022-10-20T06:39:08.711Z,4.70
2022-10-20T06:41:36.084Z,4.60
2022-10-20T06:44:03.775Z,4.60
2022-10-20T06:46:36.742Z,4.70
2022-10-20T06:49:06.255Z,4.80
2022-10-20T06:51:34.942Z,5.00
2022-10-20T06:54:02.557Z,5.10
2022-10-20T06:56:32.154Z,5.20
2022-10-20T06:59:00.860Z,5.20
2022-10-20T07:01:34.173Z,5.30
2022-10-20T07:04:04.618Z,5.30
2022-10-20T07:06:34.037Z,5.30
2022-10-20T07:09:06.627Z,5.40
2022-10-20T07:11:34.580Z,5.40
2022-10-20T07:14:02.884Z,5.40
2022-10-20T07:16:32.492Z,5.40
2022-10-20T07:19:00.867Z,5.50
2022-10-20T07:21:32.666Z,5.10
2022-10-20T07:24:07.151Z,5.60
2022-10-20T07:26:37.144Z,5.70
2022-10-20T07:29:04.914Z,5.70
2022-10-20T07:31:35.954Z,5.70
2022-10-20T07:34:23.699Z,5.80
2022-10-20T07:36:52.034Z,5.80
2022-10-20T07:39:19.458Z,5.90
2022-10-20T07:41:48.353Z,6.00
2022-10-20T07:44:16.184Z,6.00
2022-10-20T07:46:43.654Z,5.90
2022-10-20T07:49:39.188Z,5.80
2022-10-20T07:51:58.094Z,5.70
2022-10-20T07:54:25.269Z,5.70
2022-10-20T07:56:52.457Z,5.70
2022-10-20T07:59:20.044Z,5.80
2022-10-20T08:01:47.620Z,5.80
2022-10-20T08:04:14.770Z,5.90
2022-10-20T08:06:41.962Z,5.90
2022-10-20T08:09:09.072Z,6.00
2022-10-20T08:11:36.616Z,6.10
2022-10-20T08:14:03.896Z,6.20
2022-10-20T08:16:33.938Z,6.30
2022-10-20T08:19:08.860Z,6.40
2022-10-20T08:21:36.029Z,6.50
2022-10-20T08:24:04.190Z,6.70
2022-10-20T08:26:31.248Z,6.70
2022-10-20T08:28:58.386Z,6.80
2022-10-20T08:31:25.547Z,6.90
2022-10-20T08:33:53.335Z,7.10
2022-10-20T08:36:21.316Z,7.20
2022-10-20T08:38:48.993Z,7.40
2022-10-20T08:41:22.133Z,7.50
2022-10-20T08:43:52.457Z,7.70
2022-10-20T08:46:21.081Z,7.80
2022-10-20T08:48:49.076Z,8.70
2022-10-20T08:51:20.165Z,8.00
2022-10-20T08:53:49.880Z,8.10
2022-10-20T08:56:20.292Z,8.20
2022-10-20T08:58:47.733Z,8.30
2022-10-20T09:01:23.153Z,8.40
2022-10-20T09:04:04.236Z,8.50
2022-10-20T09:06:32.101Z,8.60
2022-10-20T09:09:01.066Z,8.70
2022-10-20T09:11:37.038Z,8.80
2022-10-20T09:14:04.280Z,8.90
2022-10-20T09:16:42.218Z,8.90
2022-10-20T09:19:23.645Z,9.00
2022-10-20T09:21:55.141Z,9.10
2022-10-20T09:24:22.757Z,9.10
2022-10-20T09:26:59.218Z,9.20
2022-10-20T09:29:39.019Z,9.30
2022-10-20T09:32:48.431Z,9.30
2022-10-20T09:35:36.319Z,9.30
2022-10-20T09:38:25.134Z,9.30
2022-10-20T09:41:14.992Z,9.40
2022-10-20T09:43:57.172Z,9.40
2022-10-20T09:46:37.739Z,9.40
2022-10-20T09:49:06.690Z,9.50
2022-10-20T09:51:34.612Z,9.50
2022-10-20T09:54:08.238Z,9.60
2022-10-20T09:56:43.912Z,9.70
2022-10-20T09:59:25.618Z,9.90
2022-10-20T10:01:57.853Z,10.10
2022-10-20T10:04:43.246Z,10.20
2022-10-20T10:07:32.349Z,10.30
2022-10-20T10:10:22.009Z,10.30
2022-10-20T10:12:57.475Z,10.40
2022-10-20T10:15:35.425Z,10.40
2022-10-20T10:18:13.973Z,10.40
2022-10-20T10:20:41.632Z,10.40
2022-10-20T10:23:20.725Z,10.50
2022-10-20T10:25:49.358Z,10.50
2022-10-20T10:28:38.727Z,10.50
2022-10-20T10:31:22.735Z,10.50
2022-10-20T10:34:16.151Z,10.60
2022-10-20T10:36:43.618Z,10.70
2022-10-20T10:39:15.627Z,10.70
2022-10-20T10:44:51.353Z,10.80
2022-10-20T10:47:46.173Z,10.80
2022-10-20T10:50:31.930Z,10.90
2022-10-20T10:53:23.857Z,10.90
2022-10-20T10:56:13.369Z,10.90
2022-10-20T10:58:59.711Z,10.90
2022-10-20T11:01:50.559Z,10.90
2022-10-20T11:04:36.101Z,10.90
2022-10-20T11:07:24.384Z,10.90
2022-10-20T11:09:54.503Z,10.90
2022-10-20T11:13:02.620Z,11.00
2022-10-20T11:15:38.973Z,11.00
2022-10-20T11:18:12.289Z,11.00
2022-10-20T11:20:51.413Z,11.10
2022-10-20T11:23:24.715Z,11.10
2022-10-20T11:26:22.219Z,11.20
2022-10-20T11:28:53.218Z,11.20
2022-10-20T11:31:26.157Z,11.30
2022-10-20T11:34:14.487Z,11.30
2022-10-20T11:37:13.358Z,11.30
2022-10-20T11:39:50.181Z,11.30
2022-10-20T11:42:29.364Z,11.40
2022-10-20T11:45:00.131Z,11.40
2022-10-20T11:47:35.094Z,11.40
2022-10-20T11:50:10.491Z,11.40
2022-10-20T11:52:46.775Z,11.40
2022-10-20T11:55:35.120Z,11.50
2022-10-20T11:58:20.107Z,11.50
2022-10-20T12:00:58.939Z,11.50
2022-10-20T12:03:47.211Z,11.50
2022-10-20T12:06:45.753Z,11.50
2022-10-20T12:09:24.220Z,11.50
2022-10-20T12:11:57.566Z,11.60
2022-10-20T12:14:28.713Z,11.50
2022-10-20T12:16:55.710Z,11.60
2022-10-20T12:19:28.753Z,11.60
2022-10-20T12:22:03.842Z,11.60
2022-10-20T12:25:01.537Z,11.60
2022-10-20T12:27:28.845Z,11.60
2022-10-20T12:30:00.267Z,11.60
2022-10-20T12:32:53.868Z,11.60
2022-10-20T12:35:21.031Z,11.60
2022-10-20T12:38:04.296Z,11.60
2022-10-20T12:40:31.443Z,11.50
2022-10-20T12:42:59.125Z,11.60
2022-10-20T12:45:35.403Z,11.60
2022-10-20T12:48:03.753Z,11.50
2022-10-20T12:50:43.849Z,11.50
2022-10-20T12:53:29.683Z,11.50
2022-10-20T12:56:07.853Z,11.60
2022-10-20T12:59:08.521Z,11.60
2022-10-20T13:02:09.748Z,11.60
2022-10-20T13:04:56.290Z,11.60
2022-10-20T13:07:48.507Z,11.70
2022-10-20T13:10:27.600Z,11.70
2022-10-20T13:13:20.371Z,11.70
2022-10-20T13:15:51.763Z,11.70
2022-10-20T13:18:32.681Z,11.70
2022-10-20T13:21:27.190Z,11.70
2022-10-20T13:23:57.111Z,11.70
2022-10-20T13:26:42.778Z,11.60
2022-10-20T13:29:19.903Z,11.60
2022-10-20T13:32:03.677Z,11.50
2022-10-20T13:34:55.928Z,11.50
2022-10-20T13:37:55.241Z,11.60
2022-10-20T13:40:36.517Z,11.50
2022-10-20T13:43:08.375Z,11.40
2022-10-20T13:45:51.245Z,11.40
2022-10-20T13:48:45.398Z,11.30
2022-10-20T13:51:39.150Z,11.30
2022-10-20T13:54:07.232Z,11.20
2022-10-20T13:56:42.515Z,11.20
2022-10-20T13:59:17.769Z,11.10
2022-10-20T14:01:51.933Z,11.10
2022-10-20T14:04:36.534Z,11.10
2022-10-20T14:07:13.534Z,11.00
2022-10-20T14:09:45.385Z,11.00
2022-10-20T14:12:27.183Z,10.90
2022-10-20T14:15:00.834Z,10.90
2022-10-20T14:17:29.334Z,10.80
2022-10-20T14:20:22.019Z,10.80
2022-10-20T14:22:49.615Z,10.70
2022-10-20T14:25:17.196Z,10.70
2022-10-20T14:27:45.275Z,10.50
2022-10-20T14:30:16.872Z,10.50
2022-10-20T14:32:45.880Z,10.40
2022-10-20T14:35:20.343Z,10.30
2022-10-20T14:38:14.824Z,10.30
2022-10-20T14:40:42.432Z,10.20
2022-10-20T14:43:19.616Z,10.20
2022-10-20T14:45:59.533Z,9.90
2022-10-20T14:48:43.729Z,10.00
2022-10-20T14:51:36.090Z,10.00
2022-10-20T14:54:21.332Z,9.90
2022-10-20T14:56:54.285Z,9.90
2022-10-20T14:59:24.553Z,9.80
2022-10-20T15:02:15.005Z,9.70
2022-10-20T15:04:43.804Z,9.70
2022-10-20T15:07:16.506Z,9.70
2022-10-20T15:09:48.153Z,9.60
2022-10-20T15:12:28.280Z,9.50
2022-10-20T15:15:12.569Z,9.40
2022-10-20T15:17:44.567Z,9.40
2022-10-20T15:20:30.371Z,9.30
2022-10-20T15:22:59.513Z,9.20
2022-10-20T15:25:28.814Z,9.20
2022-10-20T15:27:57.067Z,9.10
2022-10-20T15:30:25.900Z,9.00
2022-10-20T15:32:54.349Z,8.90
2022-10-20T15:35:24.046Z,8.80
2022-10-20T15:37:53.168Z,8.70
2022-10-20T15:40:21.474Z,8.60
2022-10-20T15:42:49.230Z,8.50
2022-10-20T15:45:23.326Z,8.40
2022-10-20T15:47:50.418Z,8.30
2022-10-20T15:50:21.701Z,8.20
2022-10-20T15:52:51.362Z,8.10
2022-10-20T15:55:41.843Z,8.00
2022-10-20T15:58:08.948Z,8.00
2022-10-20T16:00:36.473Z,7.90
2022-10-20T16:03:05.010Z,7.80
2022-10-20T16:05:32.237Z,7.80
2022-10-20T16:07:59.340Z,7.70
2022-10-20T16:10:30.625Z,7.60
2022-10-20T16:12:58.218Z,7.50
2022-10-20T16:15:30.292Z,7.40
2022-10-20T16:17:59.167Z,7.40
2022-10-20T16:20:26.492Z,7.30
2022-10-20T16:22:54.519Z,7.30
2022-10-20T16:25:21.592Z,7.30
2022-10-20T16:27:48.664Z,7.20
2022-10-20T16:30:16.752Z,7.20
2022-10-20T16:32:43.846Z,7.10
2022-10-20T16:35:10.907Z,7.10
2022-10-20T16:37:38.172Z,7.10
2022-10-20T16:40:05.991Z,7.00
2022-10-20T16:42:33.049Z,7.00
2022-10-20T16:45:00.296Z,7.00
2022-10-20T16:47:27.480Z,7.00
2022-10-20T16:49:54.609Z,7.00
2022-10-20T16:52:22.570Z,6.90
2022-10-20T16:54:49.617Z,6.90
2022-10-20T16:57:16.711Z,6.90
2022-10-20T16:59:49.802Z,6.90
2022-10-20T17:02:18.260Z,6.90
2022-10-20T17:04:49.868Z,6.90
2022-10-20T17:07:17.432Z,6.90
2022-10-20T17:09:44.428Z,6.80
2022-10-20T17:12:11.605Z,6.80
2022-10-20T17:14:40.732Z,6.80
2022-10-20T17:17:08.003Z,6.80
2022-10-20T17:19:35.149Z,6.70
2022-10-20T17:22:02.228Z,6.70
2022-10-20T17:24:29.490Z,6.70
2022-10-20T17:26:56.826Z,6.70
2022-10-20T17:29:26.198Z,6.60
2022-10-20T17:31:53.460Z,6.60
2022-10-20T17:34:20.529Z,6.60
2022-10-20T17:36:47.591Z,6.60
2022-10-20T17:39:17.092Z,6.60
2022-10-20T17:41:44.452Z,6.60
2022-10-20T17:44:11.702Z,6.60
2022-10-20T17:46:39.037Z,6.60
2022-10-20T17:49:06.834Z,6.60
2022-10-20T17:51:34.988Z,6.60
2022-10-20T17:54:02.871Z,6.60
2022-10-20T17:56:34.510Z,6.50
2022-10-20T17:59:03.225Z,6.50
2022-10-20T18:01:33.301Z,6.50
2022-10-20T18:04:13.029Z,6.50
2022-10-20T18:06:41.230Z,6.50
2022-10-20T18:09:13.445Z,6.50
2022-10-20T18:11:44.143Z,6.50
2022-10-20T18:14:11.243Z,6.40
2022-10-20T18:16:39.844Z,6.40
2022-10-20T18:19:08.482Z,6.40
2022-10-20T18:21:35.554Z,6.40
2022-10-20T18:24:05.929Z,6.40
2022-10-20T18:26:35.349Z,6.40
2022-10-20T18:29:04.911Z,6.40
2022-10-20T18:31:33.855Z,6.40
2022-10-20T18:34:05.706Z,6.40
2022-10-20T18:36:36.892Z,6.40
2022-10-20T18:39:07.735Z,6.40
2022-10-20T18:41:38.486Z,6.30
2022-10-20T18:44:10.643Z,6.30
2022-10-20T18:46:39.069Z,6.20
2022-10-20T18:49:07.586Z,6.20
2022-10-20T18:51:37.797Z,6.20
2022-10-20T18:54:06.578Z,6.10
2022-10-20T18:56:34.315Z,6.00
2022-10-20T18:59:04.505Z,6.00
2022-10-20T19:01:33.898Z,5.90
2022-10-20T19:04:01.948Z,5.90
2022-10-20T19:06:46.733Z,5.90
2022-10-20T19:09:20.151Z,5.90
2022-10-20T19:14:16.253Z,5.80
2022-10-20T19:16:46.349Z,5.80
2022-10-20T19:19:13.408Z,5.90
2022-10-20T19:21:40.695Z,5.90
2022-10-20T19:24:16.569Z,5.90
2022-10-20T19:26:56.870Z,5.80
2022-10-20T19:29:35.175Z,5.90
2022-10-20T19:32:03.213Z,5.90
2022-10-20T19:34:40.103Z,5.90
2022-10-20T19:37:08.718Z,5.90
2022-10-20T19:39:41.131Z,5.90
2022-10-20T19:42:09.640Z,5.80
2022-10-20T19:44:37.080Z,5.80
2022-10-20T19:47:05.134Z,5.80
2022-10-20T19:49:32.312Z,5.80
2022-10-20T19:51:59.538Z,5.80
2022-10-20T19:54:27.418Z,5.80
2022-10-20T19:56:54.567Z,5.80
2022-10-20T19:59:22.190Z,5.70
2022-10-20T20:01:50.296Z,5.70
2022-10-20T20:04:17.380Z,5.70
2022-10-20T20:06:44.690Z,5.70
2022-10-20T20:09:12.664Z,5.70
2022-10-20T20:11:40.155Z,5.70
2022-10-20T20:14:10.751Z,5.70
2022-10-20T20:16:38.299Z,5.70
2022-10-20T20:19:07.196Z,5.70
2022-10-20T20:21:34.289Z,5.70
2022-10-20T20:24:02.857Z,5.80
2022-10-20T20:26:31.848Z,5.70
2022-10-20T20:28:59.659Z,5.80
2022-10-20T20:31:27.484Z,5.80
2022-10-20T20:33:55.361Z,5.80
2022-10-20T20:36:23.744Z,5.80
2022-10-20T20:38:52.652Z,5.80
2022-10-20T20:41:22.197Z,5.80
2022-10-20T20:43:49.259Z,5.80
2022-10-20T20:46:18.423Z,5.80
2022-10-20T20:48:45.845Z,5.80
2022-10-20T20:51:14.525Z,5.80
2022-10-20T20:53:42.014Z,5.80
2022-10-20T20:56:11.806Z,5.90
2022-10-20T20:58:40.773Z,5.90
2022-10-20T21:01:31.336Z,5.90
2022-10-20T21:04:01.672Z,5.90
2022-10-20T21:06:37.955Z,5.90
2022-10-20T21:09:12.139Z,6.00
2022-10-20T21:11:39.221Z,6.00
2022-10-20T21:14:06.380Z,6.00
2022-10-20T21:16:36.924Z,6.10
2022-10-20T21:19:10.781Z,6.10
2022-10-20T21:21:43.707Z,6.10
2022-10-20T21:24:12.748Z,6.10
2022-10-20T21:26:40.503Z,6.10
2022-10-20T21:29:08.015Z,6.10
2022-10-20T21:31:35.606Z,6.10
2022-10-20T21:34:05.169Z,6.10
2022-10-20T21:36:34.904Z,6.10
2022-10-20T21:39:04.568Z,6.20
2022-10-20T21:41:33.990Z,6.20
2022-10-20T21:44:02.385Z,6.20
2022-10-20T21:46:36.015Z,6.20
2022-10-20T21:49:10.073Z,6.20
2022-10-20T21:51:39.949Z,6.20
2022-10-20T21:54:10.966Z,6.20
2022-10-20T21:56:41.405Z,6.10
2022-10-20T21:59:16.975Z,6.20
2022-10-20T22:01:44.521Z,6.20
2022-10-20T22:04:11.576Z,6.20
2022-10-20T22:06:39.181Z,6.20
2022-10-20T22:09:07.646Z,6.20
2022-10-20T22:11:39.131Z,6.20
2022-10-20T22:14:06.208Z,6.30
2022-10-20T22:16:36.767Z,6.30
2022-10-20T22:19:14.871Z,6.30
2022-10-20T22:21:44.962Z,6.30
2022-10-20T22:24:12.194Z,6.30
2022-10-20T22:26:39.501Z,6.40
2022-10-20T22:29:09.782Z,6.40
2022-10-20T22:31:38.126Z,6.40
2022-10-20T22:34:05.667Z,6.40
2022-10-20T22:36:33.056Z,6.40
2022-10-20T22:39:00.194Z,6.50
2022-10-20T22:41:27.506Z,6.50
2022-10-20T22:43:54.526Z,6.50
2022-10-20T22:46:21.624Z,6.50
2022-10-20T22:48:49.263Z,6.50
2022-10-20T22:51:17.115Z,6.50
2022-10-20T22:53:44.574Z,6.50
2022-10-20T22:56:13.320Z,6.60
2022-10-20T22:58:41.328Z,6.50
2022-10-20T23:01:18.230Z,6.50
2022-10-20T23:03:46.084Z,6.60
2022-10-20T23:06:22.641Z,6.50
2022-10-20T23:08:52.477Z,6.50
2022-10-20T23:11:20.237Z,6.50
2022-10-20T23:13:47.892Z,6.50
2022-10-20T23:16:15.654Z,6.50
2022-10-20T23:18:43.324Z,6.60
2022-10-20T23:21:12.045Z,6.50
2022-10-20T23:23:39.153Z,6.60
2022-10-20T23:26:08.030Z,6.60
2022-10-20T23:28:35.987Z,6.60
2022-10-20T23:31:14.748Z,6.60
2022-10-20T23:33:43.556Z,6.60
2022-10-20T23:36:12.601Z,6.60
2022-10-20T23:38:40.192Z,6.60
2022-10-20T23:41:07.488Z,6.60
2022-10-20T23:46:07.957Z,6.70
2022-10-20T23:48:35.610Z,6.60
2022-10-20T23:51:02.628Z,6.70
2022-10-20T23:53:29.943Z,6.70
2022-10-20T23:55:57.388Z,6.70
2022-10-20T23:58:24.717Z,6.70
